Time;durP1;ratioP1;P1;durP2;ratioP2;P2;SDS_P1;SDS_P2;PMS_P1;PMS_P2;Temp;Humidity;BMP_temperature;BMP_pressure;BME280_temperature;BME280_humidity;BME280_pressure;Samples;Min_cycle;Max_cycle;Signal;HPM_P1;HPM_P2
2022/06/24 00:00:05;;;;;;;381.58;311.63;;;;;;;21.74;72.15;99423.63;411489;24;958;-74
2022/06/24 00:00:16;;;;;;;382.85;318.70;;;;;;;21.74;72.23;99424.47;411790;24;840;-74
2022/06/24 00:00:33;;;;;;;383.20;316.23;;;;;;;21.75;72.18;99427.97;409582;24;872;-74
2022/06/24 00:00:43;;;;;;;373.15;288.35;;;;;;;21.75;72.19;99426.16;409852;24;819;-74
2022/06/24 00:00:54;;;;;;;371.38;280.58;;;;;;;21.75;72.11;99414.66;411588;24;841;-74
2022/06/24 00:01:04;;;;;;;371.47;281.87;;;;;;;21.75;71.96;99425.31;411542;24;2332;-73
2022/06/24 00:01:15;;;;;;;374.40;288.00;;;;;;;21.76;71.78;99422.53;409520;24;1172;-73
2022/06/24 00:01:25;;;;;;;373.65;285.58;;;;;;;21.75;72.23;99420.00;409732;24;968;-73
2022/06/24 00:01:36;;;;;;;375.43;285.13;;;;;;;21.73;71.92;99419.28;407912;24;886;-73
2022/06/24 00:01:59;;;;;;;372.63;279.40;;;;;;;21.75;71.27;99427.97;408035;24;783;-73
2022/06/24 00:02:11;;;;;;;373.42;279.52;;;;;;;21.74;71.30;99426.31;407761;24;1216;-73
2022/06/24 00:02:22;;;;;;;373.98;284.05;;;;;;;21.73;71.77;99427.28;405976;24;933;-73
2022/06/24 00:02:32;;;;;;;371.80;284.30;;;;;;;21.72;71.36;99420.28;408014;24;866;-73
2022/06/24 00:02:49;;;;;;;371.30;284.57;;;;;;;21.73;71.79;99419.28;407835;24;1184;-73
2022/06/24 00:02:59;;;;;;;370.75;283.90;;;;;;;21.68;71.04;99418.84;407581;24;1081;-73
2022/06/24 00:03:19;;;;;;;372.60;280.77;;;;;;;21.65;71.30;99414.69;409546;24;1227;-73
2022/06/24 00:03:29;;;;;;;373.90;280.80;;;;;;;21.69;71.01;99420.53;413579;23;914;-73
2022/06/24 00:03:42;;;;;;;369.50;279.35;;;;;;;21.67;70.97;99422.50;409538;24;1680;-73
2022/06/24 00:03:53;;;;;;;370.10;279.80;;;;;;;21.67;71.48;99418.00;409641;24;1435;-73
2022/06/24 00:04:03;;;;;;;371.67;281.47;;;;;;;21.68;71.13;99419.69;407929;24;870;-73
2022/06/24 00:04:14;;;;;;;372.25;280.50;;;;;;;21.68;71.54;99419.69;411695;24;1377;-73
2022/06/24 00:04:25;;;;;;;373.63;280.70;;;;;;;21.68;71.10;99421.53;410331;24;1563;-73
2022/06/24 00:04:36;;;;;;;373.33;280.33;;;;;;;21.67;71.20;99422.50;409762;24;842;-73
2022/06/24 00:04:54;;;;;;;374.73;282.30;;;;;;;21.66;71.15;99420.84;409812;24;1192;-73
2022/06/24 00:05:10;;;;;;;372.77;281.30;;;;;;;21.66;71.16;99420.84;411565;24;898;-73
2022/06/24 00:05:21;;;;;;;370.48;279.92;;;;;;;21.66;71.05;99423.50;411760;24;842;-73
2022/06/24 00:05:32;;;;;;;368.50;274.33;;;;;;;21.65;70.67;99424.50;413551;23;874;-75
2022/06/24 00:05:42;;;;;;;367.45;270.92;;;;;;;21.65;70.92;99424.50;411391;24;1542;-74
2022/06/24 00:05:56;;;;;;;367.13;270.93;;;;;;;21.65;70.89;99422.66;409699;24;784;-75
2022/06/24 00:06:16;;;;;;;368.88;278.48;;;;;;;21.63;70.93;99421.13;409643;24;1079;-74
2022/06/24 00:06:28;;;;;;;368.13;279.63;;;;;;;21.63;70.97;99421.97;411734;24;966;-74
2022/06/24 00:06:49;;;;;;;367.73;278.38;;;;;;;21.65;70.60;99419.16;409689;24;2500;-74
2022/06/24 00:06:59;;;;;;;368.02;280.27;;;;;;;21.66;70.95;99420.84;411670;24;934;-74
2022/06/24 00:07:16;;;;;;;366.27;279.20;;;;;;;21.65;71.07;99419.16;411753;24;894;-74
2022/06/24 00:07:27;;;;;;;366.70;278.38;;;;;;;21.65;71.20;99421.81;411253;24;869;-74
2022/06/24 00:07:50;;;;;;;368.77;283.47;;;;;;;21.65;71.27;99419.16;410958;24;1235;-73
2022/06/24 00:08:00;;;;;;;371.38;283.15;;;;;;;21.64;71.10;99418.31;411568;24;1036;-73
2022/06/24 00:08:11;;;;;;;370.02;281.85;;;;;;;21.64;71.08;99423.66;411652;24;1220;-73
2022/06/24 00:08:21;;;;;;;372.63;285.73;;;;;;;21.65;71.16;99419.16;411766;24;1269;-73
2022/06/24 00:08:32;;;;;;;372.27;283.25;;;;;;;21.66;71.12;99418.19;411451;24;1205;-73
2022/06/24 00:08:58;;;;;;;374.27;283.90;;;;;;;21.66;71.02;99420.84;411409;24;797;-73
2022/06/24 00:09:08;;;;;;;369.98;279.83;;;;;;;21.68;71.04;99421.53;413552;23;901;-73
2022/06/24 00:09:19;;;;;;;371.33;283.43;;;;;;;21.67;70.97;99419.84;409741;24;1620;-73
2022/06/24 00:09:30;;;;;;;370.48;282.58;;;;;;;21.66;71.18;99423.50;407812;24;1520;-73
2022/06/24 00:09:41;;;;;;;371.33;282.58;;;;;;;21.67;71.08;99419.84;407906;24;858;-73
2022/06/24 00:09:51;;;;;;;372.00;283.00;;;;;;;21.66;71.24;99421.66;411784;24;1470;-73
2022/06/24 00:10:11;;;;;;;372.30;283.50;;;;;;;21.69;70.98;99425.88;409883;24;795;-73
2022/06/24 00:10:25;;;;;;;370.70;279.10;;;;;;;21.67;71.48;99417.16;407804;24;862;-73
2022/06/24 00:10:36;;;;;;;370.92;282.85;;;;;;;21.66;71.31;99423.50;405840;24;1505;-73
2022/06/24 00:10:46;;;;;;;370.47;283.10;;;;;;;21.65;71.38;99417.34;409827;24;1275;-73
2022/06/24 00:10:56;;;;;;;372.52;280.08;;;;;;;21.67;71.05;99417.16;407879;24;792;-73
2022/06/24 00:11:13;;;;;;;371.43;275.80;;;;;;;21.67;70.97;99422.50;407650;24;1291;-73
2022/06/24 00:11:27;;;;;;;373.77;278.88;;;;;;;21.67;71.44;99417.16;411477;24;821;-73
2022/06/24 00:11:37;;;;;;;372.63;282.08;;;;;;;21.68;71.29;99422.38;409650;24;1484;-74
2022/06/24 00:12:05;;;;;;;370.10;278.73;;;;;;;21.66;71.06;99420.84;411861;24;862;-74
2022/06/24 00:12:20;;;;;;;367.40;280.75;;;;;;;21.66;71.07;99426.19;409715;24;1181;-74
2022/06/24 00:12:32;;;;;;;367.73;283.50;;;;;;;21.62;71.20;99416.78;409615;24;815;-74
2022/06/24 00:12:44;;;;;;;371.02;285.95;;;;;;;21.63;71.15;99421.13;409707;24;1279;-74
2022/06/24 00:12:54;;;;;;;373.35;283.45;;;;;;;21.62;71.18;99424.75;409689;24;1487;-74
2022/06/24 00:13:05;;;;;;;373.63;279.63;;;;;;;21.62;71.51;99424.75;407973;24;956;-74
2022/06/24 00:13:16;;;;;;;369.65;276.15;;;;;;;21.60;71.59;99427.56;407780;24;846;-74
2022/06/24 00:13:37;;;;;;;370.37;279.67;;;;;;;21.61;71.45;99423.91;409788;24;1911;-74
2022/06/24 00:13:47;;;;;;;372.98;288.42;;;;;;;21.61;71.63;99420.41;409491;24;917;-74
2022/06/24 00:14:15;;;;;;;373.17;289.13;;;;;;;21.58;71.78;99414.38;409860;24;879;-74
2022/06/24 00:14:25;;;;;;;366.42;274.42;;;;;;;21.60;71.91;99421.41;413649;23;964;-74
2022/06/24 00:14:36;;;;;;;367.25;275.70;;;;;;;21.60;71.65;99419.56;413628;23;865;-74
2022/06/24 00:14:59;;;;;;;370.50;280.13;;;;;;;21.57;71.48;99412.69;413771;23;900;-73
2022/06/24 00:15:10;;;;;;;373.02;282.75;;;;;;;21.56;71.35;99416.34;409610;24;884;-73
2022/06/24 00:15:31;;;;;;;373.47;283.13;;;;;;;21.55;71.30;99419.97;411744;24;1027;-73
2022/06/24 00:15:41;;;;;;;375.77;285.30;;;;;;;21.56;71.14;99415.50;409482;24;893;-73
2022/06/24 00:15:51;;;;;;;373.60;287.45;;;;;;;21.56;71.46;99421.66;407874;24;900;-73
2022/06/24 00:16:04;;;;;;;374.50;289.30;;;;;;;21.55;71.25;99425.31;408004;24;834;-73
2022/06/24 00:16:14;;;;;;;377.75;301.73;;;;;;;21.53;71.32;99421.94;407567;24;1346;-74
2022/06/24 00:16:24;;;;;;;380.83;308.83;;;;;;;21.54;71.52;99417.47;409803;24;1191;-74
2022/06/24 00:16:54;;;;;;;384.57;315.53;;;;;;;21.55;71.18;99419.97;407761;24;1481;-74
2022/06/24 00:17:06;;;;;;;380.67;315.17;;;;;;;21.56;71.56;99420.81;407802;24;1278;-74
2022/06/24 00:17:18;;;;;;;377.30;307.67;;;;;;;21.57;71.06;99423.34;409468;24;885;-74
2022/06/24 00:17:30;;;;;;;372.42;297.45;;;;;;;21.57;71.17;99419.84;409380;24;878;-74
2022/06/24 00:17:41;;;;;;;370.52;290.00;;;;;;;21.57;71.23;99417.19;409738;24;755;-74
2022/06/24 00:17:51;;;;;;;373.75;297.77;;;;;;;21.56;71.27;99421.66;411742;24;877;-74
2022/06/24 00:18:15;;;;;;;377.50;302.20;;;;;;;21.56;71.44;99421.66;409601;24;1298;-74
2022/06/24 00:18:25;;;;;;;378.83;310.58;;;;;;;21.57;71.56;99422.50;411805;24;838;-74
2022/06/24 00:18:36;;;;;;;376.73;305.63;;;;;;;21.55;71.19;99417.31;411591;24;916;-74
2022/06/24 00:19:10;;;;;;;373.05;293.58;;;;;;;21.57;71.09;99423.34;411633;24;915;-74
2022/06/24 00:19:21;;;;;;;374.27;303.25;;;;;;;21.57;71.19;99420.69;411707;24;1493;-73
2022/06/24 00:19:34;;;;;;;379.17;315.92;;;;;;;21.58;71.01;99419.72;407945;24;1350;-73
2022/06/24 00:19:55;;;;;;;380.45;321.58;;;;;;;21.57;71.29;99423.34;407926;24;877;-73
2022/06/24 00:20:07;;;;;;;376.42;310.83;;;;;;;21.55;71.50;99419.97;407880;24;927;-73
2022/06/24 00:20:19;;;;;;;374.33;310.55;;;;;;;21.54;71.40;99423.63;411360;24;1393;-73
2022/06/24 00:20:29;;;;;;;373.83;305.00;;;;;;;21.54;71.29;99423.63;411683;24;1481;-73
2022/06/24 00:20:43;;;;;;;372.90;294.60;;;;;;;21.54;71.14;99422.78;409660;24;1271;-73
2022/06/24 00:20:53;;;;;;;368.85;282.92;;;;;;;21.54;71.31;99423.63;407768;24;5300;-73
2022/06/24 00:21:11;;;;;;;366.92;278.38;;;;;;;21.55;71.63;99425.31;407972;24;852;-73
2022/06/24 00:21:21;;;;;;;367.50;277.58;;;;;;;21.54;71.35;99423.63;409782;24;1840;-73
2022/06/24 00:21:31;;;;;;;369.23;284.70;;;;;;;21.54;71.23;99426.28;409862;24;941;-73
2022/06/24 00:21:42;;;;;;;371.93;295.10;;;;;;;21.52;71.38;99422.91;411576;24;885;-73
2022/06/24 00:22:08;;;;;;;377.13;310.23;;;;;;;21.54;71.29;99422.78;411649;24;802;-73
2022/06/24 00:22:19;;;;;;;375.90;313.40;;;;;;;21.54;71.23;99426.28;409687;24;933;-73
2022/06/24 00:22:30;;;;;;;376.23;311.20;;;;;;;21.53;71.51;99423.75;409717;24;1266;-73
2022/06/24 00:22:42;;;;;;;376.63;314.40;;;;;;;21.53;71.41;99424.59;411709;24;1332;-73
2022/06/24 00:22:53;;;;;;;376.73;318.25;;;;;;;21.49;71.48;99420.53;411610;24;1348;-73
2022/06/24 00:23:07;;;;;;;379.40;323.33;;;;;;;21.50;71.74;99424.88;411518;24;798;-73
2022/06/24 00:23:18;;;;;;;379.77;318.30;;;;;;;21.51;71.58;99425.72;407705;24;855;-73
2022/06/24 00:23:29;;;;;;;377.70;305.65;;;;;;;21.52;71.79;99422.91;409737;24;1431;-73
2022/06/24 00:23:42;;;;;;;373.67;294.85;;;;;;;21.51;71.92;99423.06;409604;24;779;-73
2022/06/24 00:23:53;;;;;;;372.90;289.02;;;;;;;21.50;71.80;99422.22;409833;24;1046;-73
2022/06/24 00:24:03;;;;;;;368.77;283.83;;;;;;;21.51;71.68;99426.56;409960;24;786;-73
2022/06/24 00:24:21;;;;;;;366.57;283.27;;;;;;;21.49;71.75;99420.53;409832;24;839;-73
2022/06/24 00:24:33;;;;;;;367.30;288.58;;;;;;;21.51;71.17;99425.72;411671;24;970;-73
2022/06/24 00:24:43;;;;;;;369.77;289.55;;;;;;;21.45;71.50;99427.09;413760;23;924;-73
2022/06/24 00:25:10;;;;;;;371.77;288.90;;;;;;;21.42;71.68;99419.38;409708;24;893;-73
2022/06/24 00:25:24;;;;;;;371.58;288.55;;;;;;;21.41;71.84;99423.03;411620;24;1303;-73
2022/06/24 00:25:38;;;;;;;372.92;299.98;;;;;;;21.42;71.66;99418.53;409689;24;912;-73
2022/06/24 00:25:52;;;;;;;377.00;313.80;;;;;;;21.42;71.93;99418.53;409521;24;897;-73
2022/06/24 00:26:02;;;;;;;379.98;319.50;;;;;;;;;;412886;23;882;-73
2022/06/24 00:26:13;;;;;;;377.70;319.13;;;;;;;21.45;71.58;99423.59;415717;23;877;-73
2022/06/24 00:26:40;;;;;;;378.53;317.90;;;;;;;21.47;71.70;99421.63;411604;24;873;-73
2022/06/24 00:26:50;;;;;;;380.88;324.17;;;;;;;21.49;71.89;99425.84;409689;24;909;-73
2022/06/24 00:27:01;;;;;;;382.40;326.07;;;;;;;21.48;71.74;99423.31;409780;24;1207;-73
2022/06/24 00:27:22;;;;;;;381.05;324.60;;;;;;;21.50;71.68;99422.22;411553;24;890;-73
2022/06/24 00:27:33;;;;;;;375.52;318.73;;;;;;;21.51;71.41;99423.91;411675;24;916;-73
2022/06/24 00:27:59;;;;;;;374.43;315.70;;;;;;;21.51;70.91;99421.22;411758;24;883;-73
2022/06/24 00:28:11;;;;;;;376.38;316.58;;;;;;;21.49;70.82;99409.88;409664;24;898;-73
2022/06/24 00:28:24;;;;;;;377.10;318.00;;;;;;;21.48;70.97;99413.50;409882;24;828;-73
2022/06/24 00:28:34;;;;;;;377.25;317.75;;;;;;;21.47;71.16;99411.84;407912;24;1240;-73
2022/06/24 00:28:45;;;;;;;379.23;320.67;;;;;;;21.47;70.78;99414.50;409726;24;901;-73
2022/06/24 00:29:00;;;;;;;378.60;321.25;;;;;;;21.49;70.81;99417.88;409922;24;951;-73
2022/06/24 00:29:17;;;;;;;378.60;325.25;;;;;;;21.48;71.03;99424.16;411680;24;846;-73
2022/06/24 00:29:30;;;;;;;378.52;325.58;;;;;;;21.46;70.65;99415.47;411758;24;778;-73
2022/06/24 00:29:41;;;;;;;380.63;325.45;;;;;;;21.47;70.58;99417.16;409838;24;838;-73
2022/06/24 00:29:54;;;;;;;381.08;324.45;;;;;;;21.44;70.67;99412.09;409637;24;925;-73
2022/06/24 00:30:22;;;;;;;380.17;325.33;;;;;;;21.45;70.82;99408.47;409640;24;1432;-73
2022/06/24 00:30:43;;;;;;;378.23;316.67;;;;;;;21.41;70.68;99411.53;409769;24;909;-73
2022/06/24 00:30:54;;;;;;;384.05;324.63;;;;;;;21.41;70.46;99414.19;409694;24;1093;-73
2022/06/24 00:31:06;;;;;;;385.40;325.48;;;;;;;21.42;70.44;99414.06;413583;23;1305;-73
2022/06/24 00:31:16;;;;;;;382.95;324.20;;;;;;;21.41;70.49;99408.88;413399;23;961;-73
2022/06/24 00:31:26;;;;;;;380.53;322.77;;;;;;;21.41;70.39;99412.38;413642;23;837;-73
2022/06/24 00:31:37;;;;;;;381.35;325.85;;;;;;;21.42;70.41;99411.41;407667;24;1391;-73
2022/06/24 00:32:06;;;;;;;380.93;329.00;;;;;;;21.41;70.33;99417.69;405915;24;1269;-73
2022/06/24 00:32:31;;;;;;;380.92;326.38;;;;;;;21.41;70.30;99409.72;407857;24;942;-73
2022/06/24 00:32:42;;;;;;;379.67;320.45;;;;;;;21.42;70.08;99414.06;407850;24;800;-73
2022/06/24 00:33:17;;;;;;;376.58;316.58;;;;;;;21.41;69.88;99411.53;409851;24;1110;-73
2022/06/24 00:33:32;;;;;;;378.58;324.05;;;;;;;21.40;70.21;99409.84;409700;24;1949;-73
2022/06/24 00:33:46;;;;;;;378.90;326.13;;;;;;;21.40;70.11;99401.84;407816;24;893;-73
2022/06/24 00:33:56;;;;;;;379.75;327.58;;;;;;;21.41;70.45;99412.38;409847;24;1463;-73
2022/06/24 00:34:22;;;;;;;379.90;328.73;;;;;;;21.42;70.17;99413.22;407867;24;904;-73
2022/06/24 00:34:33;;;;;;;376.27;314.27;;;;;;;;;;411561;24;1417;-73
2022/06/24 00:34:43;;;;;;;378.30;317.42;;;;;;;21.42;70.07;99403.41;411602;24;1554;-73
2022/06/24 00:35:01;;;;;;;380.03;322.87;;;;;;;21.44;70.48;99406.78;411774;24;813;-73
2022/06/24 00:35:15;;;;;;;380.70;326.38;;;;;;;21.45;70.52;99412.94;408606;24;1058;-73
2022/06/24 00:35:25;;;;;;;383.17;326.98;;;;;;;21.45;70.70;99413.78;407935;24;821;-73
2022/06/24 00:35:37;;;;;;;385.07;331.23;;;;;;;21.44;70.23;99409.44;407703;24;1629;-73
2022/06/24 00:35:52;;;;;;;385.02;333.42;;;;;;;21.44;70.65;99406.78;411581;24;889;-73
2022/06/24 00:36:05;;;;;;;380.50;327.83;;;;;;;;;;409747;24;906;-73
2022/06/24 00:36:15;;;;;;;378.70;321.63;;;;;;;21.42;70.74;99408.72;409703;24;830;-73
2022/06/24 00:36:26;;;;;;;381.43;324.83;;;;;;;21.42;71.01;99407.88;409969;24;814;-73
2022/06/24 00:36:36;;;;;;;382.17;328.35;;;;;;;21.42;71.24;99407.88;409548;24;1207;-73
2022/06/24 00:36:46;;;;;;;383.27;331.33;;;;;;;;;;407976;24;926;-73
2022/06/24 00:36:56;;;;;;;383.07;333.43;;;;;;;;;;407906;24;1002;-73
2022/06/24 00:37:24;;;;;;;382.07;334.10;;;;;;;21.44;71.40;99406.78;407983;24;929;-73
2022/06/24 00:37:34;;;;;;;377.23;319.67;;;;;;;;;;411460;24;840;-73
2022/06/24 00:37:45;;;;;;;376.20;320.20;;;;;;;21.44;71.66;99406.78;411778;24;805;-73
2022/06/24 00:37:56;;;;;;;377.65;322.13;;;;;;;21.45;71.48;99402.28;413495;23;1492;-73
2022/06/24 00:38:29;;;;;;;379.10;325.67;;;;;;;21.44;71.57;99401.44;413625;23;798;-73
2022/06/24 00:38:40;;;;;;;378.20;327.70;;;;;;;21.42;71.72;99411.41;409620;24;917;-73
2022/06/24 00:38:51;;;;;;;377.00;326.23;;;;;;;21.41;71.64;99409.72;409710;24;1332;-73
2022/06/24 00:39:01;;;;;;;377.60;325.38;;;;;;;21.42;71.72;99403.41;409857;24;865;-73
2022/06/24 00:39:11;;;;;;;376.40;317.13;;;;;;;21.40;71.92;99399.19;413338;23;1606;-73
2022/06/24 00:39:34;;;;;;;375.40;315.27;;;;;;;21.39;71.82;99402.84;413779;23;1299;-73
2022/06/24 00:39:44;;;;;;;375.63;321.20;;;;;;;21.38;72.13;99398.50;413562;23;870;-73
2022/06/24 00:40:11;;;;;;;377.30;321.75;;;;;;;21.37;72.10;99402.13;413794;23;921;-73
2022/06/24 00:40:24;;;;;;;379.48;323.42;;;;;;;21.31;72.31;99400.00;409804;24;842;-73
2022/06/24 00:40:34;;;;;;;381.50;330.27;;;;;;;21.30;72.00;99403.66;411813;24;858;-74
2022/06/24 00:40:47;;;;;;;378.63;328.57;;;;;;;21.31;72.16;99405.34;409800;24;878;-74
2022/06/24 00:41:01;;;;;;;378.38;325.65;;;;;;;21.31;72.18;99397.34;411719;24;818;-74
2022/06/24 00:41:12;;;;;;;381.52;331.02;;;;;;;21.32;72.22;99399.88;409807;24;855;-74
2022/06/24 00:41:23;;;;;;;384.27;338.50;;;;;;;21.29;72.36;99394.81;411813;24;948;-74
2022/06/24 00:41:35;;;;;;;383.85;336.17;;;;;;;21.30;72.07;99396.50;409735;24;1253;-74
2022/06/24 00:41:51;;;;;;;381.98;332.25;;;;;;;21.29;71.93;99392.16;409816;24;963;-74
2022/06/24 00:42:02;;;;;;;386.27;340.60;;;;;;;21.30;72.34;99396.50;409867;24;826;-74
2022/06/24 00:42:12;;;;;;;389.67;346.60;;;;;;;21.30;72.32;99399.16;409587;24;977;-74
2022/06/24 00:42:23;;;;;;;388.07;345.00;;;;;;;21.30;71.98;99396.50;409735;24;1354;-74
2022/06/24 00:42:33;;;;;;;385.58;342.35;;;;;;;21.31;71.93;99395.53;407894;24;885;-74
2022/06/24 00:42:45;;;;;;;384.67;338.27;;;;;;;21.30;72.12;99398.31;411182;24;1360;-74
2022/06/24 00:42:55;;;;;;;385.55;338.50;;;;;;;21.31;72.32;99395.53;411554;24;1321;-74
2022/06/24 00:43:06;;;;;;;384.50;334.57;;;;;;;21.31;72.33;99395.53;409842;24;823;-74
2022/06/24 00:43:22;;;;;;;383.55;334.25;;;;;;;21.30;71.97;99393.84;409739;24;1353;-74
2022/06/24 00:43:36;;;;;;;380.72;333.46;;;;;;;21.31;72.11;99389.34;411560;24;1397;-74
2022/06/24 00:43:47;;;;;;;382.05;334.27;;;;;;;21.32;72.63;99397.22;409799;24;877;-74
2022/06/24 00:43:58;;;;;;;382.75;332.80;;;;;;;21.32;72.34;99391.88;407993;24;767;-74
2022/06/24 00:44:08;;;;;;;384.65;336.25;;;;;;;21.33;72.54;99395.38;407852;24;932;-74
2022/06/24 00:44:19;;;;;;;386.58;339.70;;;;;;;21.34;72.33;99395.25;408474;24;831;-74
2022/06/24 00:44:43;;;;;;;387.92;342.92;;;;;;;21.33;72.83;99398.06;411597;24;1264;-74
2022/06/24 00:45:21;;;;;;;384.20;339.65;;;;;;;21.31;72.63;99395.53;409518;24;1018;-73
2022/06/24 00:45:41;;;;;;;378.52;335.40;;;;;;;21.29;72.49;99394.81;409752;24;912;-73
2022/06/24 00:45:52;;;;;;;378.80;331.65;;;;;;;21.30;72.80;99398.31;409885;24;873;-73
2022/06/24 00:46:11;;;;;;;381.43;333.33;;;;;;;21.31;72.70;99394.69;411641;24;1620;-73
2022/06/24 00:46:26;;;;;;;383.13;340.67;;;;;;;21.29;72.63;99394.81;413275;23;1005;-73
2022/06/24 00:46:37;;;;;;;379.25;332.83;;;;;;;21.30;72.61;99396.50;411845;24;1033;-73
2022/06/24 00:46:47;;;;;;;380.48;332.45;;;;;;;21.28;73.02;99395.78;411795;24;849;-73
2022/06/24 00:46:58;;;;;;;381.20;333.17;;;;;;;21.27;72.88;99388.78;411860;24;992;-73
2022/06/24 00:47:08;;;;;;;383.00;338.38;;;;;;;21.27;72.66;99394.13;411776;24;901;-73
2022/06/24 00:47:19;;;;;;;382.07;336.37;;;;;;;21.28;72.65;99395.78;411766;24;815;-73
2022/06/24 00:47:29;;;;;;;382.90;337.50;;;;;;;21.29;72.94;99397.47;409962;24;866;-73
2022/06/24 00:47:40;;;;;;;382.90;336.00;;;;;;;21.29;72.54;99392.16;409837;24;807;-73
2022/06/24 00:47:50;;;;;;;381.88;335.80;;;;;;;21.27;72.86;99388.78;409916;24;1226;-73
2022/06/24 00:48:15;;;;;;;383.67;336.03;;;;;;;21.27;72.84;99391.44;413460;23;1118;-73
2022/06/24 00:48:28;;;;;;;381.83;331.02;;;;;;;21.25;72.69;99388.91;409843;24;1230;-73
2022/06/24 00:48:41;;;;;;;380.88;332.67;;;;;;;21.25;72.60;99396.91;413564;23;913;-73
2022/06/24 00:48:56;;;;;;;382.38;339.92;;;;;;;21.22;72.90;99393.72;411785;24;854;-73
2022/06/24 00:49:07;;;;;;;380.98;335.35;;;;;;;21.23;73.25;99393.53;411714;24;1034;-73
2022/06/24 00:49:23;;;;;;;381.33;335.70;;;;;;;21.23;73.08;99390.88;411462;24;1058;-73
2022/06/24 00:49:34;;;;;;;382.35;336.52;;;;;;;21.23;73.06;99398.03;411701;24;885;-73
2022/06/24 00:49:44;;;;;;;382.15;335.75;;;;;;;21.24;73.30;99400.53;411842;24;787;-73
2022/06/24 00:49:57;;;;;;;384.25;338.02;;;;;;;21.24;73.09;99394.38;410070;24;751;-73
2022/06/24 00:50:23;;;;;;;385.63;342.58;;;;;;;21.23;73.26;99392.69;409843;24;886;-73
2022/06/24 00:50:33;;;;;;;381.65;339.38;;;;;;;21.22;73.69;99396.38;409889;24;944;-73
2022/06/24 00:50:47;;;;;;;381.73;339.35;;;;;;;21.21;73.41;99394.69;411467;24;1567;-73
2022/06/24 00:50:58;;;;;;;382.08;336.60;;;;;;;21.20;73.66;99395.63;413780;23;892;-73
2022/06/24 00:51:08;;;;;;;380.60;334.67;;;;;;;21.21;73.80;99403.50;411754;24;1285;-73
2022/06/24 00:51:20;;;;;;;382.47;336.77;;;;;;;21.22;73.21;99401.69;411711;24;777;-73
2022/06/24 00:51:37;;;;;;;389.67;346.80;;;;;;;21.22;73.08;99402.53;411841;24;846;-73
2022/06/24 00:51:47;;;;;;;384.38;341.85;;;;;;;21.23;73.30;99404.19;411765;24;887;-73
2022/06/24 00:51:58;;;;;;;381.27;339.08;;;;;;;21.24;73.63;99399.72;413614;23;1176;-73
2022/06/24 00:52:09;;;;;;;384.97;342.53;;;;;;;21.24;73.71;99400.53;410234;24;1384;-73
2022/06/24 00:52:19;;;;;;;385.40;342.80;;;;;;;21.23;73.46;99398.03;409626;24;870;-73
2022/06/24 00:52:29;;;;;;;385.50;342.88;;;;;;;21.23;73.59;99396.19;407970;24;838;-73
2022/06/24 00:52:40;;;;;;;385.30;342.87;;;;;;;21.23;73.52;99398.03;410044;24;961;-73
2022/06/24 00:52:53;;;;;;;377.55;335.52;;;;;;;21.24;73.81;99399.72;409925;24;838;-73
2022/06/24 00:53:04;;;;;;;379.95;337.52;;;;;;;21.24;73.61;99402.38;409664;24;858;-73
2022/06/24 00:53:14;;;;;;;381.02;337.40;;;;;;;21.23;73.71;99403.34;409708;24;798;-73
2022/06/24 00:53:25;;;;;;;383.60;341.10;;;;;;;21.23;73.32;99406.00;411789;24;880;-73
2022/06/24 00:53:39;;;;;;;384.27;338.27;;;;;;;21.24;73.53;99410.34;411467;24;1902;-73
2022/06/24 00:53:54;;;;;;;385.58;337.83;;;;;;;21.24;73.81;99410.34;409504;24;1199;-73
2022/06/24 00:54:12;;;;;;;383.83;336.73;;;;;;;21.23;73.60;99406.84;408029;24;910;-73
2022/06/24 00:54:23;;;;;;;381.00;337.52;;;;;;;21.24;73.44;99410.34;409676;24;969;-73
2022/06/24 00:54:33;;;;;;;382.50;340.20;;;;;;;21.22;73.74;99413.19;407916;24;847;-73
2022/06/24 00:54:44;;;;;;;386.00;340.20;;;;;;;21.23;73.49;99408.66;409926;24;898;-73
2022/06/24 00:54:54;;;;;;;385.50;338.88;;;;;;;21.22;73.51;99409.69;409866;24;1059;-73
2022/06/24 00:55:05;;;;;;;382.70;336.27;;;;;;;21.23;73.48;99408.66;409930;24;877;-73
2022/06/24 00:55:27;;;;;;;381.63;339.00;;;;;;;21.22;73.69;99413.19;411649;24;1138;-73
2022/06/24 00:55:37;;;;;;;382.98;334.00;;;;;;;21.23;73.61;99408.66;409921;24;862;-73
2022/06/24 00:55:48;;;;;;;383.98;337.52;;;;;;;21.22;73.74;99407.00;409847;24;799;-73
2022/06/24 00:55:58;;;;;;;384.27;341.70;;;;;;;21.21;73.84;99410.66;407898;24;779;-73
2022/06/24 00:56:10;;;;;;;382.13;339.85;;;;;;;21.21;73.91;99413.31;409532;24;1494;-73
2022/06/24 00:56:24;;;;;;;381.10;337.10;;;;;;;21.21;73.60;99411.50;411695;24;1036;-73
2022/06/24 00:56:34;;;;;;;382.13;337.58;;;;;;;21.21;74.01;99410.66;409942;24;1447;-73
2022/06/24 00:56:47;;;;;;;384.63;342.00;;;;;;;21.21;73.92;99410.66;411602;24;788;-73
2022/06/24 00:56:58;;;;;;;387.25;344.50;;;;;;;21.19;73.92;99417.91;409771;24;1455;-73
2022/06/24 00:57:08;;;;;;;390.87;347.93;;;;;;;21.19;73.76;99408.09;411806;24;1212;-73
2022/06/24 00:57:19;;;;;;;388.38;345.45;;;;;;;21.19;73.86;99413.41;409814;24;1106;-73
2022/06/24 00:57:35;;;;;;;387.07;344.27;;;;;;;21.19;74.33;99407.25;409890;24;1165;-74
2022/06/24 00:57:46;;;;;;;386.00;343.50;;;;;;;21.19;74.20;99412.56;408046;24;1127;-74
2022/06/24 00:57:59;;;;;;;387.47;345.07;;;;;;;21.17;74.18;99415.38;408047;24;875;-74
2022/06/24 00:58:15;;;;;;;388.52;345.90;;;;;;;21.17;74.60;99409.22;407813;24;1276;-74
2022/06/24 00:58:25;;;;;;;386.95;344.27;;;;;;;21.18;74.55;99410.88;407857;24;835;-74
2022/06/24 00:58:37;;;;;;;388.48;345.83;;;;;;;21.18;74.39;99416.22;409707;24;853;-74
2022/06/24 00:58:52;;;;;;;384.17;341.75;;;;;;;21.17;74.33;99410.06;411838;24;1230;-73
2022/06/24 00:59:05;;;;;;;384.67;342.25;;;;;;;21.18;74.29;99406.41;413718;23;853;-73
2022/06/24 00:59:15;;;;;;;391.77;349.05;;;;;;;21.18;74.86;99405.56;411638;23;1388;-73
2022/06/24 00:59:25;;;;;;;390.73;348.02;;;;;;;21.19;74.58;99407.25;411809;24;949;-73
2022/06/24 00:59:36;;;;;;;388.40;345.83;;;;;;;21.18;74.73;99416.22;411844;24;831;-73
2022/06/24 00:59:47;;;;;;;385.52;343.10;;;;;;;21.17;74.45;99415.38;411742;24;862;-73
2022/06/24 00:59:57;;;;;;;384.25;341.92;;;;;;;21.18;74.88;99417.06;413607;23;1513;-73
2022/06/24 01:00:11;;;;;;;387.80;345.17;;;;;;;21.17;74.28;99409.22;411686;24;1228;-73
2022/06/24 01:00:28;;;;;;;390.20;347.35;;;;;;;21.17;74.86;99409.22;411551;24;1775;-73
2022/06/24 01:00:41;;;;;;;391.75;349.10;;;;;;;21.18;74.37;99416.22;411615;24;1099;-74
2022/06/24 01:00:51;;;;;;;391.75;348.95;;;;;;;21.15;74.56;99408.50;411711;24;1476;-74
2022/06/24 01:01:02;;;;;;;390.27;347.17;;;;;;;21.15;74.68;99411.16;411804;24;844;-74
2022/06/24 01:01:12;;;;;;;390.40;347.27;;;;;;;21.13;75.17;99410.44;409666;24;944;-74
2022/06/24 01:01:33;;;;;;;394.10;351.17;;;;;;;21.14;75.09;99418.31;411684;24;893;-74
2022/06/24 01:01:43;;;;;;;394.00;351.27;;;;;;;21.14;74.85;99412.13;409737;24;913;-74
2022/06/24 01:01:53;;;;;;;394.80;351.90;;;;;;;21.14;75.03;99409.47;409855;24;832;-74
2022/06/24 01:02:05;;;;;;;393.77;350.70;;;;;;;21.14;75.24;99414.78;407823;24;1197;-74
2022/06/24 01:02:16;;;;;;;391.23;348.10;;;;;;;21.13;74.97;99413.97;407806;24;972;-74
2022/06/24 01:02:27;;;;;;;391.45;348.30;;;;;;;21.14;75.19;99409.47;409365;24;1302;-74
2022/06/24 01:02:37;;;;;;;394.40;351.17;;;;;;;21.13;75.34;99418.44;409867;24;837;-74
2022/06/24 01:02:48;;;;;;;392.35;349.33;;;;;;;21.10;75.05;99410.72;409949;24;738;-74
2022/06/24 01:03:00;;;;;;;393.17;350.17;;;;;;;21.09;75.09;99414.34;413525;23;822;-74